sensor_id;sensor_type;location;lat;lon;timestamp;P1;durP1;ratioP1;P2;durP2;ratioP2
68247;SDS011;55064;49.636;12.164;2023-11-19T00:01:35;10.30;;;4.40;;
68247;SDS011;55064;49.636;12.164;2023-11-19T00:04:00;8.63;;;3.60;;
68247;SDS011;55064;49.636;12.164;2023-11-19T00:06:25;10.43;;;3.70;;
68247;SDS011;55064;49.636;12.164;2023-11-19T00:08:51;8.37;;;3.70;;
68247;SDS011;55064;49.636;12.164;2023-11-19T00:11:16;9.63;;;3.80;;
68247;SDS011;55064;49.636;12.164;2023-11-19T00:13:42;9.43;;;4.17;;
68247;SDS011;55064;49.636;12.164;2023-11-19T00:16:08;9.53;;;4.10;;
68247;SDS011;55064;49.636;12.164;2023-11-19T00:18:34;9.98;;;4.13;;
68247;SDS011;55064;49.636;12.164;2023-11-19T00:21:01;10.55;;;3.72;;
68247;SDS011;55064;49.636;12.164;2023-11-19T00:23:27;8.55;;;3.60;;
68247;SDS011;55064;49.636;12.164;2023-11-19T00:25:52;8.33;;;3.33;;
68247;SDS011;55064;49.636;12.164;2023-11-19T00:28:18;9.13;;;3.30;;
68247;SDS011;55064;49.636;12.164;2023-11-19T00:30:43;7.33;;;3.07;;
68247;SDS011;55064;49.636;12.164;2023-11-19T00:33:08;8.40;;;3.20;;
68247;SDS011;55064;49.636;12.164;2023-11-19T00:35:34;9.03;;;4.20;;
68247;SDS011;55064;49.636;12.164;2023-11-19T00:37:59;8.70;;;3.42;;
68247;SDS011;55064;49.636;12.164;2023-11-19T00:40:25;8.30;;;2.93;;
68247;SDS011;55064;49.636;12.164;2023-11-19T00:42:50;8.18;;;3.10;;
68247;SDS011;55064;49.636;12.164;2023-11-19T00:45:16;7.90;;;2.77;;
68247;SDS011;55064;49.636;12.164;2023-11-19T00:47:41;7.83;;;2.57;;
68247;SDS011;55064;49.636;12.164;2023-11-19T00:50:07;6.90;;;2.60;;
68247;SDS011;55064;49.636;12.164;2023-11-19T00:52:36;6.78;;;2.63;;
68247;SDS011;55064;49.636;12.164;2023-11-19T00:55:02;6.93;;;2.60;;
68247;SDS011;55064;49.636;12.164;2023-11-19T00:57:28;6.87;;;2.80;;
68247;SDS011;55064;49.636;12.164;2023-11-19T00:59:53;6.97;;;2.70;;
68247;SDS011;55064;49.636;12.164;2023-11-19T01:02:18;7.30;;;3.03;;
68247;SDS011;55064;49.636;12.164;2023-11-19T01:04:44;7.30;;;2.23;;
68247;SDS011;55064;49.636;12.164;2023-11-19T01:07:10;7.85;;;2.95;;
68247;SDS011;55064;49.636;12.164;2023-11-19T01:09:38;8.27;;;3.43;;
68247;SDS011;55064;49.636;12.164;2023-11-19T01:12:04;9.63;;;3.25;;
68247;SDS011;55064;49.636;12.164;2023-11-19T01:14:29;8.13;;;3.07;;
68247;SDS011;55064;49.636;12.164;2023-11-19T01:16:55;6.47;;;2.58;;
68247;SDS011;55064;49.636;12.164;2023-11-19T01:19:21;7.30;;;3.00;;
68247;SDS011;55064;49.636;12.164;2023-11-19T01:21:47;8.45;;;2.78;;
68247;SDS011;55064;49.636;12.164;2023-11-19T01:24:13;6.60;;;2.47;;
68247;SDS011;55064;49.636;12.164;2023-11-19T01:26:39;8.02;;;2.97;;
68247;SDS011;55064;49.636;12.164;2023-11-19T01:29:09;6.38;;;2.53;;
68247;SDS011;55064;49.636;12.164;2023-11-19T01:31:34;5.77;;;2.40;;
68247;SDS011;55064;49.636;12.164;2023-11-19T01:33:59;6.17;;;2.20;;
68247;SDS011;55064;49.636;12.164;2023-11-19T01:36:25;6.60;;;2.40;;
68247;SDS011;55064;49.636;12.164;2023-11-19T01:38:50;6.55;;;2.17;;
68247;SDS011;55064;49.636;12.164;2023-11-19T01:41:15;5.93;;;1.80;;
68247;SDS011;55064;49.636;12.164;2023-11-19T01:43:41;7.13;;;2.10;;
68247;SDS011;55064;49.636;12.164;2023-11-19T01:46:06;4.93;;;1.70;;
68247;SDS011;55064;49.636;12.164;2023-11-19T01:48:34;4.85;;;1.60;;
68247;SDS011;55064;49.636;12.164;2023-11-19T01:51:01;5.80;;;1.90;;
68247;SDS011;55064;49.636;12.164;2023-11-19T01:53:29;6.25;;;2.15;;
68247;SDS011;55064;49.636;12.164;2023-11-19T01:55:55;6.70;;;2.10;;
68247;SDS011;55064;49.636;12.164;2023-11-19T01:58:21;5.30;;;1.50;;
68247;SDS011;55064;49.636;12.164;2023-11-19T02:00:48;5.10;;;1.30;;
68247;SDS011;55064;49.636;12.164;2023-11-19T02:03:14;5.10;;;1.60;;
68247;SDS011;55064;49.636;12.164;2023-11-19T02:05:39;5.22;;;1.50;;
68247;SDS011;55064;49.636;12.164;2023-11-19T02:08:05;6.07;;;1.80;;
68247;SDS011;55064;49.636;12.164;2023-11-19T02:10:30;5.50;;;1.90;;
68247;SDS011;55064;49.636;12.164;2023-11-19T02:12:57;4.50;;;1.40;;
68247;SDS011;55064;49.636;12.164;2023-11-19T02:15:22;5.18;;;1.38;;
68247;SDS011;55064;49.636;12.164;2023-11-19T02:17:49;4.32;;;1.30;;
68247;SDS011;55064;49.636;12.164;2023-11-19T02:20:15;5.18;;;1.67;;
68247;SDS011;55064;49.636;12.164;2023-11-19T02:22:40;5.07;;;1.33;;
68247;SDS011;55064;49.636;12.164;2023-11-19T02:25:39;4.40;;;1.27;;
68247;SDS011;55064;49.636;12.164;2023-11-19T02:27:59;4.30;;;1.30;;
68247;SDS011;55064;49.636;12.164;2023-11-19T02:30:26;4.60;;;1.10;;
68247;SDS011;55064;49.636;12.164;2023-11-19T02:32:53;4.10;;;0.98;;
68247;SDS011;55064;49.636;12.164;2023-11-19T02:35:23;3.45;;;0.80;;
68247;SDS011;55064;49.636;12.164;2023-11-19T02:37:52;3.67;;;1.00;;
68247;SDS011;55064;49.636;12.164;2023-11-19T02:40:21;3.60;;;1.10;;
68247;SDS011;55064;49.636;12.164;2023-11-19T02:42:47;2.95;;;0.85;;
68247;SDS011;55064;49.636;12.164;2023-11-19T02:45:13;4.33;;;1.10;;
68247;SDS011;55064;49.636;12.164;2023-11-19T02:47:42;4.50;;;1.38;;
68247;SDS011;55064;49.636;12.164;2023-11-19T02:50:11;3.25;;;0.90;;
68247;SDS011;55064;49.636;12.164;2023-11-19T02:52:43;5.15;;;1.25;;
68247;SDS011;55064;49.636;12.164;2023-11-19T02:55:10;4.80;;;1.50;;
68247;SDS011;55064;49.636;12.164;2023-11-19T02:57:40;5.25;;;1.40;;
68247;SDS011;55064;49.636;12.164;2023-11-19T03:00:16;4.70;;;1.38;;
68247;SDS011;55064;49.636;12.164;2023-11-19T03:02:48;3.47;;;0.90;;
68247;SDS011;55064;49.636;12.164;2023-11-19T03:05:23;3.88;;;1.00;;
68247;SDS011;55064;49.636;12.164;2023-11-19T03:07:49;4.77;;;1.30;;
68247;SDS011;55064;49.636;12.164;2023-11-19T03:10:15;4.57;;;1.05;;
68247;SDS011;55064;49.636;12.164;2023-11-19T03:12:40;3.90;;;1.03;;
68247;SDS011;55064;49.636;12.164;2023-11-19T03:15:06;3.42;;;0.60;;
68247;SDS011;55064;49.636;12.164;2023-11-19T03:17:34;4.30;;;0.82;;
68247;SDS011;55064;49.636;12.164;2023-11-19T03:20:09;3.43;;;0.80;;
68247;SDS011;55064;49.636;12.164;2023-11-19T03:22:38;4.00;;;0.90;;
68247;SDS011;55064;49.636;12.164;2023-11-19T03:25:04;3.92;;;0.80;;
68247;SDS011;55064;49.636;12.164;2023-11-19T03:27:29;3.50;;;0.90;;
68247;SDS011;55064;49.636;12.164;2023-11-19T03:29:55;4.57;;;1.40;;
68247;SDS011;55064;49.636;12.164;2023-11-19T03:32:20;4.07;;;1.10;;
68247;SDS011;55064;49.636;12.164;2023-11-19T03:34:45;4.63;;;1.27;;
68247;SDS011;55064;49.636;12.164;2023-11-19T03:37:11;3.47;;;0.90;;
68247;SDS011;55064;49.636;12.164;2023-11-19T03:39:36;5.37;;;1.27;;
68247;SDS011;55064;49.636;12.164;2023-11-19T03:42:02;4.50;;;1.20;;
68247;SDS011;55064;49.636;12.164;2023-11-19T03:44:28;5.20;;;1.13;;
68247;SDS011;55064;49.636;12.164;2023-11-19T03:46:53;5.30;;;1.40;;
68247;SDS011;55064;49.636;12.164;2023-11-19T03:49:19;3.85;;;1.17;;
68247;SDS011;55064;49.636;12.164;2023-11-19T03:51:44;5.20;;;1.50;;
68247;SDS011;55064;49.636;12.164;2023-11-19T03:54:10;5.20;;;1.60;;
68247;SDS011;55064;49.636;12.164;2023-11-19T03:56:36;4.75;;;1.40;;
68247;SDS011;55064;49.636;12.164;2023-11-19T03:59:02;4.17;;;1.20;;
68247;SDS011;55064;49.636;12.164;2023-11-19T04:01:28;3.67;;;0.80;;
68247;SDS011;55064;49.636;12.164;2023-11-19T04:03:53;4.13;;;1.20;;
68247;SDS011;55064;49.636;12.164;2023-11-19T04:06:18;4.07;;;0.80;;
68247;SDS011;55064;49.636;12.164;2023-11-19T04:08:44;2.83;;;0.77;;
68247;SDS011;55064;49.636;12.164;2023-11-19T04:11:09;2.72;;;0.50;;
68247;SDS011;55064;49.636;12.164;2023-11-19T04:13:35;2.33;;;0.50;;
68247;SDS011;55064;49.636;12.164;2023-11-19T04:16:00;2.57;;;0.50;;
68247;SDS011;55064;49.636;12.164;2023-11-19T04:18:26;2.17;;;0.65;;
68247;SDS011;55064;49.636;12.164;2023-11-19T04:20:52;2.63;;;0.70;;
68247;SDS011;55064;49.636;12.164;2023-11-19T04:23:17;1.83;;;0.40;;
68247;SDS011;55064;49.636;12.164;2023-11-19T04:25:42;2.23;;;0.50;;
68247;SDS011;55064;49.636;12.164;2023-11-19T04:28:08;3.37;;;0.60;;
68247;SDS011;55064;49.636;12.164;2023-11-19T04:30:33;2.10;;;0.50;;
68247;SDS011;55064;49.636;12.164;2023-11-19T04:33:00;2.75;;;0.70;;
68247;SDS011;55064;49.636;12.164;2023-11-19T04:35:25;2.37;;;0.50;;
68247;SDS011;55064;49.636;12.164;2023-11-19T04:37:51;2.80;;;0.70;;
68247;SDS011;55064;49.636;12.164;2023-11-19T04:40:16;2.90;;;0.75;;
68247;SDS011;55064;49.636;12.164;2023-11-19T04:42:43;3.40;;;0.85;;
68247;SDS011;55064;49.636;12.164;2023-11-19T04:45:08;4.67;;;1.20;;
68247;SDS011;55064;49.636;12.164;2023-11-19T04:47:35;2.85;;;0.70;;
68247;SDS011;55064;49.636;12.164;2023-11-19T04:50:01;3.70;;;1.00;;
68247;SDS011;55064;49.636;12.164;2023-11-19T04:52:27;3.10;;;0.70;;
68247;SDS011;55064;49.636;12.164;2023-11-19T04:54:52;3.73;;;0.70;;
68247;SDS011;55064;49.636;12.164;2023-11-19T04:57:18;3.53;;;0.90;;
68247;SDS011;55064;49.636;12.164;2023-11-19T04:59:43;3.42;;;0.95;;
68247;SDS011;55064;49.636;12.164;2023-11-19T05:02:09;3.30;;;0.80;;
68247;SDS011;55064;49.636;12.164;2023-11-19T05:04:34;3.10;;;0.90;;
68247;SDS011;55064;49.636;12.164;2023-11-19T05:07:00;4.22;;;0.90;;
68247;SDS011;55064;49.636;12.164;2023-11-19T05:09:25;4.37;;;1.20;;
68247;SDS011;55064;49.636;12.164;2023-11-19T05:11:51;4.07;;;1.27;;
68247;SDS011;55064;49.636;12.164;2023-11-19T05:14:16;4.57;;;1.38;;
68247;SDS011;55064;49.636;12.164;2023-11-19T05:16:43;4.35;;;1.35;;
68247;SDS011;55064;49.636;12.164;2023-11-19T05:19:09;4.40;;;1.30;;
68247;SDS011;55064;49.636;12.164;2023-11-19T05:21:34;4.90;;;1.80;;
68247;SDS011;55064;49.636;12.164;2023-11-19T05:24:00;5.07;;;1.65;;
68247;SDS011;55064;49.636;12.164;2023-11-19T05:26:26;5.67;;;2.20;;
68247;SDS011;55064;49.636;12.164;2023-11-19T05:28:51;5.70;;;2.10;;
68247;SDS011;55064;49.636;12.164;2023-11-19T05:31:17;6.30;;;2.08;;
68247;SDS011;55064;49.636;12.164;2023-11-19T05:33:43;5.70;;;2.10;;
68247;SDS011;55064;49.636;12.164;2023-11-19T05:36:10;5.90;;;2.28;;
68247;SDS011;55064;49.636;12.164;2023-11-19T05:38:36;5.55;;;1.98;;
68247;SDS011;55064;49.636;12.164;2023-11-19T05:41:01;5.90;;;2.30;;
68247;SDS011;55064;49.636;12.164;2023-11-19T05:43:27;5.15;;;1.90;;
68247;SDS011;55064;49.636;12.164;2023-11-19T05:45:52;6.27;;;2.40;;
68247;SDS011;55064;49.636;12.164;2023-11-19T05:48:18;5.20;;;1.87;;
68247;SDS011;55064;49.636;12.164;2023-11-19T05:50:43;5.60;;;2.13;;
68247;SDS011;55064;49.636;12.164;2023-11-19T05:53:09;5.88;;;2.08;;
68247;SDS011;55064;49.636;12.164;2023-11-19T05:55:35;5.70;;;2.30;;
68247;SDS011;55064;49.636;12.164;2023-11-19T05:58:09;6.22;;;2.25;;
68247;SDS011;55064;49.636;12.164;2023-11-19T06:00:37;6.70;;;2.00;;
68247;SDS011;55064;49.636;12.164;2023-11-19T06:03:02;5.90;;;2.25;;
68247;SDS011;55064;49.636;12.164;2023-11-19T06:05:28;5.10;;;1.87;;
68247;SDS011;55064;49.636;12.164;2023-11-19T06:07:53;5.47;;;1.73;;
68247;SDS011;55064;49.636;12.164;2023-11-19T06:10:18;5.47;;;1.90;;
68247;SDS011;55064;49.636;12.164;2023-11-19T06:12:45;6.22;;;2.60;;
68247;SDS011;55064;49.636;12.164;2023-11-19T06:15:11;6.00;;;2.08;;
68247;SDS011;55064;49.636;12.164;2023-11-19T06:17:36;5.13;;;2.03;;
68247;SDS011;55064;49.636;12.164;2023-11-19T06:20:03;6.80;;;2.77;;
68247;SDS011;55064;49.636;12.164;2023-11-19T06:22:29;6.30;;;2.30;;
68247;SDS011;55064;49.636;12.164;2023-11-19T06:24:56;6.93;;;2.70;;
68247;SDS011;55064;49.636;12.164;2023-11-19T06:27:21;6.40;;;2.60;;
68247;SDS011;55064;49.636;12.164;2023-11-19T06:29:47;5.40;;;2.05;;
68247;SDS011;55064;49.636;12.164;2023-11-19T06:32:12;6.37;;;2.53;;
68247;SDS011;55064;49.636;12.164;2023-11-19T06:34:38;6.20;;;2.13;;
68247;SDS011;55064;49.636;12.164;2023-11-19T06:37:03;7.20;;;3.03;;
68247;SDS011;55064;49.636;12.164;2023-11-19T06:39:29;5.35;;;1.98;;
68247;SDS011;55064;49.636;12.164;2023-11-19T06:41:54;6.30;;;2.27;;
68247;SDS011;55064;49.636;12.164;2023-11-19T06:44:20;5.80;;;2.10;;
68247;SDS011;55064;49.636;12.164;2023-11-19T06:46:45;6.32;;;2.13;;
68247;SDS011;55064;49.636;12.164;2023-11-19T06:49:11;6.80;;;2.40;;
68247;SDS011;55064;49.636;12.164;2023-11-19T06:51:41;6.50;;;2.40;;
68247;SDS011;55064;49.636;12.164;2023-11-19T06:54:07;8.90;;;3.67;;
68247;SDS011;55064;49.636;12.164;2023-11-19T06:56:32;7.30;;;3.40;;
68247;SDS011;55064;49.636;12.164;2023-11-19T06:58:57;6.73;;;2.83;;
68247;SDS011;55064;49.636;12.164;2023-11-19T07:01:23;6.90;;;2.97;;
68247;SDS011;55064;49.636;12.164;2023-11-19T07:03:48;8.57;;;3.70;;
68247;SDS011;55064;49.636;12.164;2023-11-19T07:06:14;8.37;;;3.27;;
68247;SDS011;55064;49.636;12.164;2023-11-19T07:08:42;7.70;;;3.00;;
68247;SDS011;55064;49.636;12.164;2023-11-19T07:11:11;8.00;;;3.22;;
68247;SDS011;55064;49.636;12.164;2023-11-19T07:13:37;6.75;;;2.70;;
68247;SDS011;55064;49.636;12.164;2023-11-19T07:16:03;7.28;;;3.03;;
68247;SDS011;55064;49.636;12.164;2023-11-19T07:18:28;6.63;;;2.50;;
68247;SDS011;55064;49.636;12.164;2023-11-19T07:20:54;5.75;;;2.10;;
68247;SDS011;55064;49.636;12.164;2023-11-19T07:23:19;5.30;;;1.90;;
68247;SDS011;55064;49.636;12.164;2023-11-19T07:25:45;5.60;;;2.10;;
68247;SDS011;55064;49.636;12.164;2023-11-19T07:28:12;6.75;;;2.25;;
68247;SDS011;55064;49.636;12.164;2023-11-19T07:30:38;7.85;;;2.25;;
68247;SDS011;55064;49.636;12.164;2023-11-19T07:33:03;5.53;;;2.10;;
68247;SDS011;55064;49.636;12.164;2023-11-19T07:35:29;5.00;;;1.80;;
68247;SDS011;55064;49.636;12.164;2023-11-19T07:37:55;6.13;;;2.00;;
68247;SDS011;55064;49.636;12.164;2023-11-19T07:40:21;5.50;;;1.90;;
68247;SDS011;55064;49.636;12.164;2023-11-19T07:42:46;5.53;;;2.03;;
68247;SDS011;55064;49.636;12.164;2023-11-19T07:45:12;5.53;;;1.83;;
68247;SDS011;55064;49.636;12.164;2023-11-19T07:47:37;5.20;;;1.70;;
68247;SDS011;55064;49.636;12.164;2023-11-19T07:50:03;4.90;;;1.70;;
68247;SDS011;55064;49.636;12.164;2023-11-19T07:52:29;4.85;;;1.70;;
68247;SDS011;55064;49.636;12.164;2023-11-19T07:54:54;5.67;;;2.20;;
68247;SDS011;55064;49.636;12.164;2023-11-19T07:57:20;6.37;;;2.37;;
68247;SDS011;55064;49.636;12.164;2023-11-19T07:59:46;6.18;;;2.25;;
68247;SDS011;55064;49.636;12.164;2023-11-19T08:02:11;6.90;;;2.72;;
68247;SDS011;55064;49.636;12.164;2023-11-19T08:04:37;6.47;;;2.30;;
68247;SDS011;55064;49.636;12.164;2023-11-19T08:07:04;6.13;;;2.67;;
68247;SDS011;55064;49.636;12.164;2023-11-19T08:09:30;6.50;;;2.10;;
68247;SDS011;55064;49.636;12.164;2023-11-19T08:11:55;5.68;;;1.98;;
68247;SDS011;55064;49.636;12.164;2023-11-19T08:14:21;5.60;;;1.87;;
68247;SDS011;55064;49.636;12.164;2023-11-19T08:16:46;4.73;;;1.70;;
68247;SDS011;55064;49.636;12.164;2023-11-19T08:19:12;5.07;;;1.67;;
68247;SDS011;55064;49.636;12.164;2023-11-19T08:21:37;4.60;;;1.60;;
68247;SDS011;55064;49.636;12.164;2023-11-19T08:24:03;5.13;;;1.80;;
68247;SDS011;55064;49.636;12.164;2023-11-19T08:26:28;4.53;;;1.63;;
68247;SDS011;55064;49.636;12.164;2023-11-19T08:28:54;5.07;;;1.70;;
68247;SDS011;55064;49.636;12.164;2023-11-19T08:31:19;5.10;;;1.57;;
68247;SDS011;55064;49.636;12.164;2023-11-19T08:33:45;5.00;;;1.77;;
68247;SDS011;55064;49.636;12.164;2023-11-19T08:36:16;5.13;;;1.70;;
68247;SDS011;55064;49.636;12.164;2023-11-19T08:38:42;5.17;;;1.77;;
68247;SDS011;55064;49.636;12.164;2023-11-19T08:41:07;5.85;;;2.20;;
68247;SDS011;55064;49.636;12.164;2023-11-19T08:43:32;5.57;;;1.90;;
68247;SDS011;55064;49.636;12.164;2023-11-19T08:45:58;5.10;;;1.60;;
68247;SDS011;55064;49.636;12.164;2023-11-19T08:48:23;5.03;;;1.60;;
68247;SDS011;55064;49.636;12.164;2023-11-19T08:50:48;5.73;;;1.87;;
68247;SDS011;55064;49.636;12.164;2023-11-19T08:53:14;4.85;;;1.50;;
68247;SDS011;55064;49.636;12.164;2023-11-19T08:55:40;6.30;;;1.87;;
68247;SDS011;55064;49.636;12.164;2023-11-19T08:58:05;6.22;;;1.80;;
68247;SDS011;55064;49.636;12.164;2023-11-19T09:00:31;5.10;;;1.80;;
68247;SDS011;55064;49.636;12.164;2023-11-19T09:02:57;4.55;;;1.45;;
68247;SDS011;55064;49.636;12.164;2023-11-19T09:05:23;5.07;;;1.83;;
68247;SDS011;55064;49.636;12.164;2023-11-19T09:07:48;4.03;;;1.17;;
68247;SDS011;55064;49.636;12.164;2023-11-19T09:10:14;6.47;;;1.80;;
68247;SDS011;55064;49.636;12.164;2023-11-19T09:12:40;6.07;;;2.00;;
68247;SDS011;55064;49.636;12.164;2023-11-19T09:15:06;6.55;;;2.08;;
68247;SDS011;55064;49.636;12.164;2023-11-19T09:17:32;6.33;;;2.00;;
68247;SDS011;55064;49.636;12.164;2023-11-19T09:19:57;5.80;;;1.80;;
68247;SDS011;55064;49.636;12.164;2023-11-19T09:22:22;6.70;;;1.98;;
68247;SDS011;55064;49.636;12.164;2023-11-19T09:24:48;4.37;;;1.27;;
68247;SDS011;55064;49.636;12.164;2023-11-19T09:27:14;4.60;;;1.43;;
68247;SDS011;55064;49.636;12.164;2023-11-19T09:29:39;4.20;;;1.33;;
68247;SDS011;55064;49.636;12.164;2023-11-19T09:32:04;5.32;;;1.50;;
68247;SDS011;55064;49.636;12.164;2023-11-19T09:34:30;4.40;;;1.43;;
68247;SDS011;55064;49.636;12.164;2023-11-19T09:36:56;4.88;;;1.60;;
68247;SDS011;55064;49.636;12.164;2023-11-19T09:39:22;5.03;;;1.93;;
68247;SDS011;55064;49.636;12.164;2023-11-19T09:41:47;6.13;;;2.47;;
68247;SDS011;55064;49.636;12.164;2023-11-19T09:44:13;5.47;;;1.90;;
68247;SDS011;55064;49.636;12.164;2023-11-19T09:46:40;4.30;;;1.20;;
68247;SDS011;55064;49.636;12.164;2023-11-19T09:49:06;4.80;;;1.63;;
68247;SDS011;55064;49.636;12.164;2023-11-19T09:51:34;5.45;;;1.75;;
68247;SDS011;55064;49.636;12.164;2023-11-19T09:54:00;6.50;;;2.85;;
68247;SDS011;55064;49.636;12.164;2023-11-19T09:56:26;6.53;;;2.83;;
68247;SDS011;55064;49.636;12.164;2023-11-19T09:58:58;6.55;;;3.00;;
68247;SDS011;55064;49.636;12.164;2023-11-19T10:01:24;5.70;;;2.08;;
68247;SDS011;55064;49.636;12.164;2023-11-19T10:03:50;7.65;;;3.35;;
68247;SDS011;55064;49.636;12.164;2023-11-19T10:06:19;5.90;;;2.07;;
68247;SDS011;55064;49.636;12.164;2023-11-19T10:08:45;4.80;;;1.67;;
68247;SDS011;55064;49.636;12.164;2023-11-19T10:11:11;5.23;;;1.70;;
68247;SDS011;55064;49.636;12.164;2023-11-19T10:13:37;3.88;;;1.30;;
68247;SDS011;55064;49.636;12.164;2023-11-19T10:16:04;3.17;;;1.00;;
68247;SDS011;55064;49.636;12.164;2023-11-19T10:18:33;5.63;;;2.00;;
68247;SDS011;55064;49.636;12.164;2023-11-19T10:21:02;4.57;;;1.70;;
68247;SDS011;55064;49.636;12.164;2023-11-19T10:23:29;4.72;;;1.70;;
68247;SDS011;55064;49.636;12.164;2023-11-19T10:25:54;5.23;;;1.70;;
68247;SDS011;55064;49.636;12.164;2023-11-19T10:28:36;6.00;;;1.90;;
68247;SDS011;55064;49.636;12.164;2023-11-19T10:31:04;6.00;;;1.98;;
68247;SDS011;55064;49.636;12.164;2023-11-19T10:33:30;8.57;;;2.90;;
68247;SDS011;55064;49.636;12.164;2023-11-19T10:35:56;8.57;;;3.37;;
68247;SDS011;55064;49.636;12.164;2023-11-19T10:38:23;8.20;;;3.30;;
68247;SDS011;55064;49.636;12.164;2023-11-19T10:40:49;7.53;;;3.05;;
68247;SDS011;55064;49.636;12.164;2023-11-19T10:43:15;8.70;;;3.40;;
68247;SDS011;55064;49.636;12.164;2023-11-19T10:45:42;7.72;;;2.75;;
68247;SDS011;55064;49.636;12.164;2023-11-19T10:48:07;8.00;;;3.13;;
68247;SDS011;55064;49.636;12.164;2023-11-19T10:50:37;7.40;;;2.65;;
68247;SDS011;55064;49.636;12.164;2023-11-19T10:53:03;6.00;;;1.90;;
68247;SDS011;55064;49.636;12.164;2023-11-19T10:55:30;10.87;;;4.10;;
68247;SDS011;55064;49.636;12.164;2023-11-19T10:58:01;10.38;;;3.78;;
68247;SDS011;55064;49.636;12.164;2023-11-19T11:00:37;5.18;;;1.75;;
68247;SDS011;55064;49.636;12.164;2023-11-19T11:03:20;6.30;;;2.50;;
68247;SDS011;55064;49.636;12.164;2023-11-19T11:05:50;5.25;;;2.00;;
68247;SDS011;55064;49.636;12.164;2023-11-19T11:08:16;5.67;;;2.30;;
68247;SDS011;55064;49.636;12.164;2023-11-19T11:10:43;6.45;;;2.10;;
68247;SDS011;55064;49.636;12.164;2023-11-19T11:13:10;6.68;;;2.50;;
68247;SDS011;55064;49.636;12.164;2023-11-19T11:15:38;6.65;;;2.70;;
68247;SDS011;55064;49.636;12.164;2023-11-19T11:18:04;7.15;;;2.50;;
68247;SDS011;55064;49.636;12.164;2023-11-19T11:20:33;6.53;;;2.83;;
68247;SDS011;55064;49.636;12.164;2023-11-19T11:23:03;6.15;;;2.60;;
68247;SDS011;55064;49.636;12.164;2023-11-19T11:28:39;5.70;;;2.20;;
68247;SDS011;55064;49.636;12.164;2023-11-19T11:36:31;13.23;;;5.30;;
68247;SDS011;55064;49.636;12.164;2023-11-19T11:39:08;8.77;;;3.40;;
68247;SDS011;55064;49.636;12.164;2023-11-19T11:41:34;8.57;;;3.20;;
68247;SDS011;55064;49.636;12.164;2023-11-19T11:43:59;8.13;;;3.00;;
68247;SDS011;55064;49.636;12.164;2023-11-19T11:49:04;9.93;;;4.30;;
68247;SDS011;55064;49.636;12.164;2023-11-19T11:59:37;6.40;;;1.60;;
68247;SDS011;55064;49.636;12.164;2023-11-19T12:02:08;6.13;;;1.80;;
68247;SDS011;55064;49.636;12.164;2023-11-19T12:04:34;4.78;;;1.80;;
68247;SDS011;55064;49.636;12.164;2023-11-19T12:07:04;5.93;;;2.20;;
68247;SDS011;55064;49.636;12.164;2023-11-19T12:09:46;4.93;;;1.60;;
68247;SDS011;55064;49.636;12.164;2023-11-19T12:19:58;6.68;;;1.58;;
68247;SDS011;55064;49.636;12.164;2023-11-19T12:22:24;5.73;;;1.93;;
68247;SDS011;55064;49.636;12.164;2023-11-19T12:24:50;5.70;;;1.60;;
68247;SDS011;55064;49.636;12.164;2023-11-19T12:27:18;4.32;;;1.33;;
68247;SDS011;55064;49.636;12.164;2023-11-19T12:29:47;4.90;;;1.60;;
68247;SDS011;55064;49.636;12.164;2023-11-19T12:32:12;7.13;;;2.05;;
68247;SDS011;55064;49.636;12.164;2023-11-19T12:34:38;5.37;;;1.53;;
68247;SDS011;55064;49.636;12.164;2023-11-19T12:37:04;8.02;;;1.73;;
68247;SDS011;55064;49.636;12.164;2023-11-19T12:39:30;7.07;;;1.75;;
68247;SDS011;55064;49.636;12.164;2023-11-19T12:41:55;6.43;;;1.93;;
68247;SDS011;55064;49.636;12.164;2023-11-19T12:44:24;6.50;;;2.17;;
68247;SDS011;55064;49.636;12.164;2023-11-19T12:47:05;6.13;;;1.70;;
68247;SDS011;55064;49.636;12.164;2023-11-19T12:49:35;6.27;;;1.70;;
68247;SDS011;55064;49.636;12.164;2023-11-19T12:52:00;4.40;;;1.50;;
68247;SDS011;55064;49.636;12.164;2023-11-19T12:54:35;5.45;;;1.80;;
68247;SDS011;55064;49.636;12.164;2023-11-19T12:57:01;5.32;;;1.90;;
68247;SDS011;55064;49.636;12.164;2023-11-19T12:59:27;7.72;;;2.00;;
68247;SDS011;55064;49.636;12.164;2023-11-19T13:01:59;6.30;;;1.70;;
68247;SDS011;55064;49.636;12.164;2023-11-19T13:04:28;7.13;;;2.22;;
68247;SDS011;55064;49.636;12.164;2023-11-19T13:06:58;6.75;;;1.77;;
68247;SDS011;55064;49.636;12.164;2023-11-19T13:09:27;7.47;;;2.40;;
68247;SDS011;55064;49.636;12.164;2023-11-19T13:11:53;5.95;;;2.33;;
68247;SDS011;55064;49.636;12.164;2023-11-19T13:14:21;8.18;;;2.67;;
68247;SDS011;55064;49.636;12.164;2023-11-19T13:16:46;8.00;;;2.47;;
68247;SDS011;55064;49.636;12.164;2023-11-19T13:19:12;6.10;;;2.10;;
68247;SDS011;55064;49.636;12.164;2023-11-19T13:21:41;7.30;;;2.75;;
68247;SDS011;55064;49.636;12.164;2023-11-19T13:24:07;7.30;;;2.47;;
68247;SDS011;55064;49.636;12.164;2023-11-19T13:26:32;6.83;;;2.33;;
68247;SDS011;55064;49.636;12.164;2023-11-19T13:28:57;4.47;;;1.53;;
68247;SDS011;55064;49.636;12.164;2023-11-19T13:31:23;4.77;;;1.70;;
68247;SDS011;55064;49.636;12.164;2023-11-19T13:33:48;6.15;;;1.17;;
68247;SDS011;55064;49.636;12.164;2023-11-19T13:36:14;6.57;;;1.60;;
68247;SDS011;55064;49.636;12.164;2023-11-19T13:38:39;6.10;;;2.10;;
68247;SDS011;55064;49.636;12.164;2023-11-19T13:41:07;5.90;;;1.73;;
68247;SDS011;55064;49.636;12.164;2023-11-19T13:43:34;4.65;;;1.50;;
68247;SDS011;55064;49.636;12.164;2023-11-19T13:45:59;4.50;;;1.40;;
68247;SDS011;55064;49.636;12.164;2023-11-19T13:48:25;5.77;;;1.40;;
68247;SDS011;55064;49.636;12.164;2023-11-19T13:50:51;4.88;;;1.10;;
68247;SDS011;55064;49.636;12.164;2023-11-19T13:53:17;4.87;;;1.13;;
68247;SDS011;55064;49.636;12.164;2023-11-19T13:55:42;4.97;;;1.20;;
68247;SDS011;55064;49.636;12.164;2023-11-19T13:58:08;3.95;;;1.20;;
68247;SDS011;55064;49.636;12.164;2023-11-19T14:00:34;5.03;;;1.30;;
68247;SDS011;55064;49.636;12.164;2023-11-19T14:02:59;5.10;;;1.40;;
68247;SDS011;55064;49.636;12.164;2023-11-19T14:05:25;4.40;;;1.20;;
68247;SDS011;55064;49.636;12.164;2023-11-19T14:07:51;4.28;;;1.30;;
68247;SDS011;55064;49.636;12.164;2023-11-19T14:10:17;4.40;;;1.33;;
68247;SDS011;55064;49.636;12.164;2023-11-19T14:12:42;4.30;;;1.20;;
68247;SDS011;55064;49.636;12.164;2023-11-19T14:15:08;5.20;;;1.50;;
68247;SDS011;55064;49.636;12.164;2023-11-19T14:17:35;7.30;;;1.43;;
68247;SDS011;55064;49.636;12.164;2023-11-19T14:20:01;6.20;;;1.55;;
68247;SDS011;55064;49.636;12.164;2023-11-19T14:22:29;7.57;;;1.90;;
68247;SDS011;55064;49.636;12.164;2023-11-19T14:24:55;5.57;;;1.50;;
68247;SDS011;55064;49.636;12.164;2023-11-19T14:27:20;4.60;;;1.43;;
68247;SDS011;55064;49.636;12.164;2023-11-19T14:29:47;5.60;;;2.03;;
68247;SDS011;55064;49.636;12.164;2023-11-19T14:32:12;5.53;;;1.60;;
68247;SDS011;55064;49.636;12.164;2023-11-19T14:34:38;5.77;;;1.50;;
68247;SDS011;55064;49.636;12.164;2023-11-19T14:37:03;4.47;;;1.40;;
68247;SDS011;55064;49.636;12.164;2023-11-19T14:39:29;4.63;;;1.35;;
68247;SDS011;55064;49.636;12.164;2023-11-19T14:41:56;5.80;;;1.70;;
68247;SDS011;55064;49.636;12.164;2023-11-19T14:44:26;4.80;;;1.60;;
68247;SDS011;55064;49.636;12.164;2023-11-19T14:46:51;7.10;;;1.45;;
68247;SDS011;55064;49.636;12.164;2023-11-19T14:49:17;5.67;;;1.63;;
68247;SDS011;55064;49.636;12.164;2023-11-19T14:51:42;4.80;;;1.30;;
68247;SDS011;55064;49.636;12.164;2023-11-19T14:54:08;8.17;;;1.90;;
68247;SDS011;55064;49.636;12.164;2023-11-19T14:56:33;6.27;;;1.77;;